Time;durP1;ratioP1;P1;durP2;ratioP2;P2;SDS_P1;SDS_P2;PMS_P1;PMS_P2;Temp;Humidity;BMP_temperature;BMP_pressure;BME280_temperature;BME280_humidity;BME280_pressure;Samples;Min_cycle;Max_cycle;Signal;HPM_P1;HPM_P2
2022/12/17 13:06:02;;;;;;;0.38;0.38;;;;;;;;;;5026099;28;20712;-85
2022/12/17 13:08:28;;;;;;;2.15;2.05;;;;;;;;;;5009899;28;20060;-84
2022/12/17 13:10:55;;;;;;;0.20;0.20;;;;;;;;;;5014012;28;20495;-86
2022/12/17 13:13:24;;;;;;;0.20;0.10;;;;;;;;;;5014484;28;20056;-88
2022/12/17 13:15:54;;;;;;;0.90;0.90;;;;;;;;;;5041732;28;20051;-85
2022/12/17 13:18:38;;;;;;;0.20;0.10;;;;;;;;;;5028399;28;20725;-84
2022/12/17 13:21:22;;;;;;;0.50;0.50;;;;;;;;;;5046265;28;20068;-86
2022/12/17 13:23:48;;;;;;;0.75;0.75;;;;;;;;;;5004094;28;20495;-84
2022/12/17 13:26:14;;;;;;;0.20;0.10;;;;;;;;;;5005278;28;20451;-88
2022/12/17 13:28:41;;;;;;;0.20;0.10;;;;;;;;;;5048215;28;20033;-89
2022/12/17 13:31:15;;;;;;;0.20;0.10;;;;;;;;;;5007846;28;20111;-86
2022/12/17 13:33:47;;;;;;;0.30;0.30;;;;;;;;;;5000184;28;20041;-86
2022/12/17 13:36:14;;;;;;;0.20;0.20;;;;;;;;;;5010093;28;20128;-85
2022/12/17 13:38:54;;;;;;;0.47;0.47;;;;;;;;;;5027953;28;20053;-84
2022/12/17 13:41:31;;;;;;;0.20;0.10;;;;;;;;;;5001974;28;20503;-86
2022/12/17 13:44:02;;;;;;;0.50;0.50;;;;;;;;;;5010860;28;20495;-86
2022/12/17 13:46:40;;;;;;;0.20;0.10;;;;;;;;;;5040906;28;20043;-89
2022/12/17 13:49:18;;;;;;;0.25;0.17;;;;;;;;;;5004006;28;20045;-86
2022/12/17 13:51:44;;;;;;;0.60;0.52;;;;;;;;;;5045275;28;20033;-86
2022/12/17 13:54:18;;;;;;;0.20;0.10;;;;;;;;;;5027009;28;20037;-88
2022/12/17 13:59:55;;;;;;;0.28;0.28;;;;;;;;;;5041638;28;20056;-86
2022/12/17 14:02:26;;;;;;;0.20;0.10;;;;;;;;;;5012050;28;20048;-89
2022/12/17 14:04:56;;;;;;;0.20;0.10;;;;;;;;;;5001729;28;20072;-85
2022/12/17 14:07:24;;;;;;;0.20;0.10;;;;;;;;;;5007332;28;20091;-86
2022/12/17 14:09:53;;;;;;;0.20;0.10;;;;;;;;;;5014931;28;20067;-87
2022/12/17 14:12:23;;;;;;;0.63;0.63;;;;;;;;;;5012130;28;20121;-88
2022/12/17 14:14:55;;;;;;;0.63;0.63;;;;;;;;;;5000303;28;20455;-89
2022/12/17 14:17:23;;;;;;;0.20;0.10;;;;;;;;;;5017856;28;20032;-87
2022/12/17 14:19:52;;;;;;;0.20;0.10;;;;;;;;;;5008696;28;20247;-85
2022/12/17 14:22:24;;;;;;;55.17;13.57;;;;;;;;;;5029413;28;20398;-87
2022/12/17 14:24:51;;;;;;;0.33;0.33;;;;;;;;;;5007894;28;20530;-85
2022/12/17 14:27:21;;;;;;;0.20;0.20;;;;;;;;;;5044221;28;20048;-86
2022/12/17 14:29:47;;;;;;;1.45;1.35;;;;;;;;;;5028755;28;20041;-83
2022/12/17 14:32:22;;;;;;;0.20;0.10;;;;;;;;;;4998843;28;20435;-87
2022/12/17 14:34:48;;;;;;;0.20;0.10;;;;;;;;;;4993785;28;20044;-84
2022/12/17 14:37:19;;;;;;;0.20;0.10;;;;;;;;;;5004878;28;20033;-85
2022/12/17 14:39:48;;;;;;;0.20;0.10;;;;;;;;;;4998381;28;20125;-87
2022/12/17 14:42:27;;;;;;;0.20;0.20;;;;;;;;;;5001223;28;20037;-86
2022/12/17 14:45:20;;;;;;;0.20;0.10;;;;;;;;;;4997974;28;20044;-87
2022/12/17 14:47:57;;;;;;;0.20;0.10;;;;;;;;;;5024251;28;20064;-85
2022/12/17 14:50:26;;;;;;;0.20;0.20;;;;;;;;;;5013153;28;20040;-87
2022/12/17 14:52:53;;;;;;;0.20;0.10;;;;;;;;;;4997901;28;20075;-84
2022/12/17 14:55:27;;;;;;;0.20;0.13;;;;;;;;;;5028504;28;20733;-85
2022/12/17 14:58:12;;;;;;;0.20;0.10;;;;;;;;;;5010332;28;20043;-84
2022/12/17 15:00:39;;;;;;;0.20;0.10;;;;;;;;;;4999557;28;20053;-85
2022/12/17 15:03:06;;;;;;;0.93;0.85;;;;;;;;;;5043085;28;20096;-87
2022/12/17 15:05:32;;;;;;;2.15;1.98;;;;;;;;;;5008970;28;20171;-88
2022/12/17 15:07:58;;;;;;;0.20;0.10;;;;;;;;;;5015367;28;20179;-87
2022/12/17 15:10:45;;;;;;;0.60;0.55;;;;;;;;;;5010683;28;20095;-89
2022/12/17 15:13:11;;;;;;;0.20;0.10;;;;;;;;;;5028160;28;20193;-87
2022/12/17 15:15:37;;;;;;;0.20;0.10;;;;;;;;;;5001551;28;20083;-87
2022/12/17 15:18:29;;;;;;;0.20;0.10;;;;;;;;;;5013718;28;20048;-88
2022/12/17 15:20:55;;;;;;;0.20;0.10;;;;;;;;;;5011535;28;20178;-86
2022/12/17 15:23:22;;;;;;;0.20;0.20;;;;;;;;;;4997025;28;20102;-86
2022/12/17 15:25:49;;;;;;;0.20;0.20;;;;;;;;;;5025443;28;20072;-86
2022/12/17 15:28:15;;;;;;;0.20;0.10;;;;;;;;;;5002052;28;20044;-87
2022/12/17 15:30:42;;;;;;;0.20;0.10;;;;;;;;;;5018057;28;20046;-86
2022/12/17 15:33:12;;;;;;;0.20;0.10;;;;;;;;;;5001552;28;20048;-88
2022/12/17 15:35:47;;;;;;;0.20;0.10;;;;;;;;;;5009462;28;20094;-88
2022/12/17 15:38:34;;;;;;;0.40;0.40;;;;;;;;;;5005849;28;20033;-88
2022/12/17 15:43:09;;;;;;;0.25;0.17;;;;;;;;;;5002202;28;20083;-87
2022/12/17 15:43:46;;;;;;;0.30;0.25;;;;;;;;;;5020409;28;20041;-88
2022/12/17 15:46:15;;;;;;;0.20;0.13;;;;;;;;;;5024489;28;20033;-87
2022/12/17 15:48:42;;;;;;;0.20;0.10;;;;;;;;;;5027206;28;20472;-86
2022/12/17 15:51:08;;;;;;;0.20;0.10;;;;;;;;;;4999168;28;20553;-86
2022/12/17 15:53:34;;;;;;;0.20;0.10;;;;;;;;;;4999919;28;20075;-88
2022/12/17 15:56:04;;;;;;;0.30;0.30;;;;;;;;;;5019602;28;20521;-90
2022/12/17 15:58:30;;;;;;;1.15;1.15;;;;;;;;;;5007100;28;20287;-86
2022/12/17 16:00:56;;;;;;;0.20;0.10;;;;;;;;;;5009639;28;20054;-89
2022/12/17 16:03:25;;;;;;;0.20;0.10;;;;;;;;;;5011125;28;20036;-89
2022/12/17 16:05:52;;;;;;;0.80;0.80;;;;;;;;;;4999335;28;20029;-89
2022/12/17 16:08:18;;;;;;;0.20;0.10;;;;;;;;;;5011763;28;20045;-85
2022/12/17 16:10:44;;;;;;;0.90;0.82;;;;;;;;;;5013436;28;20055;-85
2022/12/17 16:13:32;;;;;;;3.55;3.30;;;;;;;;;;4999996;28;20045;-88
2022/12/17 16:16:20;;;;;;;;;;;;;;;;;;;;;
2022/12/17 16:19:32;;;;;;;;;;;;;;;;;;;;;
2022/12/17 16:26:01;;;;;;;0.20;0.20;;;;;;;;;;5001546;28;20043;-87
2022/12/17 16:28:27;;;;;;;1.45;1.40;;;;;;;;;;5005831;28;20496;-84
2022/12/17 16:31:08;;;;;;;0.20;0.10;;;;;;;;;;5021306;28;20053;-88
2022/12/17 16:33:46;;;;;;;0.20;0.10;;;;;;;;;;5014629;28;20041;-88
2022/12/17 16:36:14;;;;;;;0.40;0.35;;;;;;;;;;4996129;28;20049;-87
2022/12/17 16:38:47;;;;;;;0.20;0.10;;;;;;;;;;5021120;28;20048;-85
2022/12/17 16:41:14;;;;;;;0.20;0.10;;;;;;;;;;4994187;28;20119;-84
2022/12/17 16:43:40;;;;;;;0.68;0.68;;;-1.20;99.90;;;;;;4996495;28;20036;-88
2022/12/17 16:46:31;;;;;;;0.20;0.10;;;;;;;;;;5007058;28;20064;-86
2022/12/17 16:48:58;;;;;;;0.50;0.47;;;;;;;;;;4993087;28;20043;-89
2022/12/17 16:51:30;;;;;;;0.20;0.10;;;;;;;;;;5016319;23;20045;-90
2022/12/17 16:54:34;;;;;;;0.90;0.90;;;;;;;;;;4943677;28;20682;-88
2022/12/17 16:57:18;;;;;;;1.08;1.08;;;;;;;;;;4919351;28;20040;-88
2022/12/17 16:59:45;;;;;;;0.20;0.15;;;;;;;;;;4901305;28;20059;-87
2022/12/17 17:02:25;;;;;;;0.20;0.10;;;;;;;;;;5035439;23;20053;-86
2022/12/17 17:05:06;;;;;;;0.20;0.10;;;;;;;;;;5041695;28;20044;-89
2022/12/17 17:11:18;;;;;;;0.20;0.17;;;;;;;;;;5068485;22;20492;-89
2022/12/17 17:13:47;;;;;;;0.65;0.65;;;;;;;;;;5046679;28;20049;-89
2022/12/17 17:16:23;;;;;;;0.20;0.10;;;;;;;;;;5036941;28;20102;-88
2022/12/17 17:18:53;;;;;;;0.20;0.10;;;;;;;;;;5043977;28;20075;-86
2022/12/17 17:21:24;;;;;;;0.20;0.10;;;;;;;;;;5055185;28;20040;-88
2022/12/17 17:23:52;;;;;;;0.40;0.40;;;;;;;;;;5055939;28;20060;-85
2022/12/17 17:26:18;;;;;;;0.20;0.10;;;;;;;;;;5060334;22;20129;-81
2022/12/17 17:28:45;;;;;;;0.20;0.10;;;;;;;;;;5034019;28;20038;-81
2022/12/17 17:31:12;;;;;;;0.20;0.10;;;;;;;;;;5035067;28;20045;-82
2022/12/17 17:33:39;;;;;;;0.20;0.15;;;;;;;;;;5038443;28;20049;-82
2022/12/17 17:36:06;;;;;;;0.20;0.10;;;;;;;;;;5040555;28;20364;-82
2022/12/17 17:38:33;;;;;;;0.55;0.55;;;;;;;;;;5015824;28;20473;-83
2022/12/17 17:40:59;;;;;;;0.20;0.10;;;;;;;;;;5038519;28;20040;-85
2022/12/17 17:43:25;;;;;;;0.20;0.10;;;;;;;;;;5022644;28;20385;-82
2022/12/17 17:45:52;;;;;;;0.20;0.10;;;;;;;;;;5021115;28;20044;-82
2022/12/17 17:48:18;;;;;;;0.20;0.10;;;;;;;;;;5038666;28;20120;-82
2022/12/17 17:50:44;;;;;;;15.90;2.05;;;;;;;;;;5038847;28;20391;-83
2022/12/17 17:53:10;;;;;;;0.30;0.30;;;;;;;;;;5021441;28;20032;-83
2022/12/17 17:55:36;;;;;;;0.22;0.22;;;;;;;;;;5015965;28;20045;-83
2022/12/17 17:58:02;;;;;;;0.20;0.10;;;;;;;;;;5034810;28;20050;-82
2022/12/17 18:00:28;;;;;;;0.20;0.10;;;;;;;;;;5014770;28;20087;-81
2022/12/17 18:02:54;;;;;;;0.20;0.20;;;;;;;;;;5030005;28;20519;-83
2022/12/17 18:05:20;;;;;;;0.20;0.10;;;;;;;;;;5017534;28;20076;-82
2022/12/17 18:07:46;;;;;;;0.20;0.10;;;;;;;;;;5014550;28;20391;-83
2022/12/17 18:10:12;;;;;;;0.20;0.10;;;;;;;;;;5020284;28;20079;-84
2022/12/17 18:15:23;;;;;;;0.20;0.10;;;;;;;;;;5031281;28;20049;-83
2022/12/17 18:17:50;;;;;;;0.20;0.10;;;;;;;;;;5015863;28;20103;-82
2022/12/17 18:20:16;;;;;;;0.20;0.10;;;;;;;;;;5018567;28;20032;-83
2022/12/17 18:22:43;;;;;;;0.20;0.10;;;;;;;;;;5034738;28;20040;-83
2022/12/17 18:25:10;;;;;;;0.20;0.10;;;;;;;;;;5014019;28;20129;-82
2022/12/17 18:27:38;;;;;;;0.20;0.10;;;;;;;;;;5032416;28;20037;-84
2022/12/17 18:30:08;;;;;;;7.68;6.32;;;;;;;;;;5033937;28;20059;-82
2022/12/17 18:32:34;;;;;;;3.60;1.45;;;;;;;;;;5020597;28;20029;-84
2022/12/17 18:35:00;;;;;;;0.20;0.10;;;;;;;;;;5036271;28;20036;-82
2022/12/17 18:37:26;;;;;;;0.20;0.10;;;;;;;;;;5028548;28;20683;-83
2022/12/17 18:39:52;;;;;;;0.20;0.10;;;;;;;;;;5013032;28;20526;-82
2022/12/17 18:45:06;;;;;;;0.20;0.10;;;;;;;;;;5026313;28;20120;-84
2022/12/17 18:47:34;;;;;;;0.30;0.30;;;;;;;;;;5011109;28;20059;-82
2022/12/17 18:50:00;;;;;;;0.20;0.10;;;;;;;;;;5031721;28;20258;-84
2022/12/17 18:52:26;;;;;;;0.20;0.10;;;;;;;;;;5014082;28;20049;-82
2022/12/17 18:54:52;;;;;;;0.20;0.20;;;;;;;;;;5034235;28;20538;-84
2022/12/17 18:57:18;;;;;;;0.30;0.30;;;;;;;;;;5017598;28;20045;-83
2022/12/17 18:59:44;;;;;;;0.30;0.30;;;;;;;;;;5014066;28;20038;-82
2022/12/17 19:02:14;;;;;;;3.30;1.38;;;;;;;;;;5026541;28;20064;-83
2022/12/17 19:04:40;;;;;;;0.20;0.20;;;;;;;;;;5029614;28;20033;-83
2022/12/17 19:07:06;;;;;;;0.20;0.10;;;;;;;;;;5030821;28;20102;-83
2022/12/17 19:09:38;;;;;;;0.50;0.50;;;;;;;;;;5015523;28;20040;-83
2022/12/17 19:12:05;;;;;;;0.20;0.10;;;;;;;;;;5034740;28;20048;-84
2022/12/17 19:14:31;;;;;;;0.20;0.10;;;;;;;;;;5031200;28;20069;-83
2022/12/17 19:16:57;;;;;;;0.20;0.10;;;;;;;;;;5027463;28;20261;-83
2022/12/17 19:19:23;;;;;;;0.20;0.10;;;;;;;;;;5032363;28;20049;-82
2022/12/17 19:21:58;;;;;;;0.20;0.10;;;;;;;;;;5031387;28;20116;-84
2022/12/17 19:24:24;;;;;;;0.20;0.10;;;;;;;;;;5014577;28;20048;-83
2022/12/17 19:26:54;;;;;;;0.20;0.10;;;;;;;;;;5034636;28;20428;-83
2022/12/17 19:29:20;;;;;;;0.30;0.30;;;;;;;;;;5033950;28;20029;-81
2022/12/17 19:31:47;;;;;;;0.20;0.10;;;;;;;;;;5015850;28;20044;-82
2022/12/17 19:34:14;;;;;;;0.22;0.17;;;;;;;;;;5033485;28;20114;-83
2022/12/17 19:36:40;;;;;;;3.60;1.00;;;;;;;;;;5030503;28;20192;-83
2022/12/17 19:39:07;;;;;;;1.02;1.02;;;;;;;;;;5015173;28;20628;-83
2022/12/17 19:41:34;;;;;;;0.20;0.10;;;;;;;;;;5014640;28;20056;-83
2022/12/17 19:44:04;;;;;;;0.20;0.17;;;;;;;;;;5043505;28;20029;-82
2022/12/17 19:46:31;;;;;;;0.20;0.10;;;;;;;;;;5018431;28;20049;-82
2022/12/17 19:48:57;;;;;;;0.28;0.25;;;;;;;;;;5018290;28;20123;-83
2022/12/17 19:51:24;;;;;;;0.20;0.10;;;;;;;;;;5004583;28;20059;-83
2022/12/17 19:53:50;;;;;;;0.20;0.20;;;;;;;;;;5010968;28;20503;-85
2022/12/17 19:56:21;;;;;;;0.20;0.20;;;;;;;;;;5016406;28;20040;-85
2022/12/17 19:58:51;;;;;;;0.20;0.10;;;;;;;;;;5031362;28;20041;-85
2022/12/17 20:01:21;;;;;;;0.43;0.40;;;;;;;;;;5015387;28;20064;-83
2022/12/17 20:03:48;;;;;;;29.23;3.72;;;;;;;;;;5013665;28;20044;-84
2022/12/17 20:06:15;;;;;;;0.20;0.20;;;;;;;;;;5028110;28;20030;-85
2022/12/17 20:08:41;;;;;;;0.20;0.20;;;;;;;;;;5032434;28;20060;-84
2022/12/17 20:13:53;;;;;;;0.20;0.10;;;;;;;;;;5028589;28;20037;-84
2022/12/17 20:16:19;;;;;;;0.65;0.65;;;;;;;;;;5030465;28;20061;-84
2022/12/17 20:18:45;;;;;;;0.35;0.35;;;;;;;;;;5017992;28;20037;-81
2022/12/17 20:21:11;;;;;;;0.20;0.10;;;;;;;;;;5015961;28;20083;-85
2022/12/17 20:23:40;;;;;;;0.25;0.17;;;;;;;;;;5025366;28;20045;-84
2022/12/17 20:26:08;;;;;;;0.20;0.10;;;;;;;;;;5034110;28;20138;-82
2022/12/17 20:28:34;;;;;;;0.20;0.20;;;;;;;;;;5018332;28;20037;-82
2022/12/17 20:31:03;;;;;;;0.20;0.10;;;;;;;;;;5016015;28;20072;-81
2022/12/17 20:33:30;;;;;;;0.30;0.30;;;;;;;;;;5032628;28;20041;-83
2022/12/17 20:36:01;;;;;;;0.43;0.43;;;;;;;;;;5031410;28;20049;-81
2022/12/17 20:38:27;;;;;;;0.20;0.10;;;;;;;;;;5026085;28;20057;-82
2022/12/17 20:40:53;;;;;;;0.52;0.52;;;;;;;;;;5018168;28;20491;-81
2022/12/17 20:43:19;;;;;;;0.65;0.65;;;;;;;;;;5033898;28;20052;-82
2022/12/17 20:45:50;;;;;;;0.20;0.10;;;;;;;;;;5035512;28;20037;-82
2022/12/17 20:48:16;;;;;;;0.20;0.10;;;;;;;;;;5034243;28;20594;-83
2022/12/17 20:50:43;;;;;;;0.20;0.10;;;;;;;;;;5032121;28;20067;-80
2022/12/17 20:53:12;;;;;;;0.20;0.10;;;;;;;;;;5035750;28;20550;-83
2022/12/17 20:55:38;;;;;;;0.20;0.10;;;;;;;;;;5031372;28;20072;-82
2022/12/17 20:58:04;;;;;;;0.20;0.10;;;;;;;;;;5032734;28;20804;-82
2022/12/17 21:00:30;;;;;;;0.20;0.10;;;;;;;;;;5032979;28;20037;-82
2022/12/17 21:02:56;;;;;;;0.20;0.20;;;;;;;;;;5033450;28;20037;-82
2022/12/17 21:05:23;;;;;;;2.40;2.20;;;;;;;;;;5017633;28;20033;-81
2022/12/17 21:07:50;;;;;;;0.55;0.55;;;;;;;;;;5027637;28;20077;-82
2022/12/17 21:10:16;;;;;;;0.20;0.10;;;;;;;;;;5017040;28;20067;-81
2022/12/17 21:15:27;;;;;;;7.68;1.67;;;;;;;;;;5031118;28;20459;-83
2022/12/17 21:17:53;;;;;;;0.20;0.10;;;;;;;;;;5019767;28;20080;-83
2022/12/17 21:20:19;;;;;;;2.70;2.42;;;;;;;;;;5027345;28;20131;-82
2022/12/17 21:22:45;;;;;;;0.20;0.10;;;;;;;;;;5039792;28;20087;-82
2022/12/17 21:25:14;;;;;;;0.20;0.10;;;;;;;;;;5015768;28;20499;-82
2022/12/17 21:27:43;;;;;;;0.20;0.10;;;;;;;;;;5030691;28;20123;-82
2022/12/17 21:30:15;;;;;;;0.20;0.10;;;;;;;;;;5032540;28;20041;-82
2022/12/17 21:32:41;;;;;;;0.20;0.10;;;;;;;;;;5029311;28;20109;-83
2022/12/17 21:35:08;;;;;;;0.20;0.10;;;;;;;;;;5033318;28;20467;-81
2022/12/17 21:37:37;;;;;;;0.55;0.52;;;;;;;;;;5035999;28;20092;-82
2022/12/17 21:40:06;;;;;;;0.38;0.38;;;;;;;;;;5039937;28;20067;-83
2022/12/17 21:45:17;;;;;;;0.47;0.47;;;;;;;;;;5035877;28;20045;-81
2022/12/17 21:47:43;;;;;;;0.20;0.10;;;;;;;;;;5018261;28;20048;-83
2022/12/17 21:50:09;;;;;;;0.55;0.50;;;;;;;;;;5031683;28;20507;-83
2022/12/17 21:52:35;;;;;;;0.30;0.30;;;;;;;;;;5036270;28;20041;-82
2022/12/17 21:55:01;;;;;;;3.30;3.03;;;;;;;;;;5037132;28;20065;-82
2022/12/17 21:57:27;;;;;;;0.20;0.10;;;;;;;;;;5019701;28;20076;-85
2022/12/17 21:59:53;;;;;;;0.20;0.10;;;;;;;;;;5032249;28;21727;-83
2022/12/17 22:02:19;;;;;;;0.20;0.10;;;;;;;;;;5019389;28;20043;-83
2022/12/17 22:04:45;;;;;;;0.20;0.10;;;;;;;;;;5016894;28;20033;-83
2022/12/17 22:07:17;;;;;;;0.20;0.10;;;;;;;;;;5017904;28;20040;-84
2022/12/17 22:09:43;;;;;;;0.47;0.47;;;;;;;;;;5020699;28;20051;-84
2022/12/17 22:14:54;;;;;;;0.20;0.10;;;;;;;;;;5029282;28;20136;-83
2022/12/17 22:17:20;;;;;;;1.95;1.85;;;;;;;;;;5014081;28;20099;-83
2022/12/17 22:19:46;;;;;;;0.20;0.10;;;;;;;;;;5019119;28;20033;-82
2022/12/17 22:22:14;;;;;;;0.30;0.30;;;;;;;;;;5028508;28;20045;-84
2022/12/17 22:24:41;;;;;;;0.20;0.10;;;;;;;;;;5029752;28;20130;-83
2022/12/17 22:27:07;;;;;;;0.20;0.10;;;;;;;;;;5033258;28;20051;-83
2022/12/17 22:35:02;;;;;;;0.20;0.10;;;;;;;;;;5029392;28;20069;-84
2022/12/17 22:37:28;;;;;;;10.15;1.23;;;;;;;;;;5017753;28;20526;-85
2022/12/17 22:39:57;;;;;;;0.20;0.10;;;;;;;;;;5020469;28;20038;-84
2022/12/17 22:45:10;;;;;;;0.45;0.45;;;;;;;;;;5033854;28;20065;-83
2022/12/17 22:47:40;;;;;;;0.20;0.10;;;;;;;;;;5035095;28;20052;-83
2022/12/17 22:50:06;;;;;;;0.20;0.10;;;;;;;;;;5030224;28;20069;-83
2022/12/17 22:52:32;;;;;;;0.20;0.10;;;;;;;;;;5016945;28;20041;-83
2022/12/17 22:55:01;;;;;;;0.20;0.10;;;;;;;;;;5027992;28;20037;-84
2022/12/17 22:57:28;;;;;;;0.20;0.10;;;;;;;;;;5029601;28;20049;-83
2022/12/17 22:59:56;;;;;;;0.20;0.10;;;;;;;;;;5023485;28;21230;-84
2022/12/17 23:02:26;;;;;;;0.20;0.10;;;;;;;;;;5008649;28;20503;-83
2022/12/17 23:04:52;;;;;;;0.63;0.63;;;;;;;;;;5015660;28;20408;-84
2022/12/17 23:07:18;;;;;;;0.20;0.10;;;;;;;;;;5032818;28;20511;-83
2022/12/17 23:09:44;;;;;;;1.10;0.47;;;;;;;;;;5028478;28;20459;-84
2022/12/17 23:14:57;;;;;;;0.20;0.13;;;;;;;;;;5034676;28;20700;-86
2022/12/17 23:17:23;;;;;;;0.20;0.10;;;;;;;;;;5018130;28;20053;-82
2022/12/17 23:19:49;;;;;;;0.22;0.20;;;;;;;;;;5028660;28;20136;-83
2022/12/17 23:22:20;;;;;;;0.88;0.88;;;;;;;;;;5030920;28;20044;-84
2022/12/17 23:24:58;;;;;;;0.20;0.10;;;;;;;;;;5034810;28;20041;-83
2022/12/17 23:27:24;;;;;;;0.20;0.10;;;;;;;;;;5034131;22;20145;-77
2022/12/17 23:29:50;;;;;;;0.20;0.10;;;;;;;;;;5037630;28;20069;-79
2022/12/17 23:32:16;;;;;;;2.70;1.30;;;;;;;;;;5029240;28;20367;-79
2022/12/17 23:34:42;;;;;;;0.73;0.73;;;;;;;;;;5024068;28;20519;-79
2022/12/17 23:37:08;;;;;;;0.20;0.10;;;;;;;;;;5015005;28;20041;-78
2022/12/17 23:39:34;;;;;;;0.20;0.10;;;;;;;;;;5015991;28;22344;-79
2022/12/17 23:42:00;;;;;;;0.20;0.10;;;;;;;;;;5018181;28;20105;-80
2022/12/17 23:44:26;;;;;;;0.20;0.10;;;;;;;;;;5037948;28;20101;-80
2022/12/17 23:46:52;;;;;;;0.57;0.47;;;;;;;;;;5015812;28;20045;-79
2022/12/17 23:49:18;;;;;;;0.20;0.20;;;;;;;;;;5036971;28;20033;-79
2022/12/17 23:51:44;;;;;;;0.45;0.43;;;;;;;;;;5006655;28;20048;-79
2022/12/17 23:54:11;;;;;;;0.73;0.68;;;;;;;;;;5021488;28;20068;-78
2022/12/17 23:56:37;;;;;;;1.00;0.95;;;;;;;;;;5023315;28;20057;-78
2022/12/17 23:59:03;;;;;;;0.70;0.70;;;;;;;;;;5022092;28;20042;-79
